Latest Weather Observations for Fawkner Beacon

IDV60801

Issued at 12:35 am EST Tuesday 22 April 2014 (issued every 30 minutes, with the page automatically refreshed every 10 minutes)

About weather observations | Map of weather stations | Latest weather observations for VIC | Other Formats
Station Details ID: 086376 Name: FAWKNER BEACON Lat: -37.91 Lon: 144.93 Height: 17.0 m
Data from the previous 72 hours. | See also: Recent months for locations in Victoria
Date/Time
EST
Temp
°C
App
Temp
°C
Dew
Point
Rel
Hum
%
Delta-T
°C
Wind Press
QNH
hPa
Press
MSL
hPa
Rain
since 9 am
mm
Dir
 
Spd
km/h
Gust
km/h
Spd
kts
Gust
kts
22/12:30am - - - - - N 54 65 29 35 - - -
22/12:00am - - - - - N 50 59 27 32 - - -
 
Date/Time
EST
Temp
°C
App
Temp
°C
Dew
Point
Rel
Hum
%
Delta-T
°C
Wind Press
QNH
hPa
Press
MSL
hPa
Rain
since 9 am
mm
Dir
 
Spd
km/h
Gust
km/h
Spd
kts
Gust
kts
21/11:30pm - - - - - N 48 59 26 32 - - -
21/11:00pm - - - - - N 52 63 28 34 - - -
21/10:30pm - - - - - N 50 61 27 33 - - -
21/10:00pm - - - - - N 56 65 30 35 - - -
21/09:30pm - - - - - N 57 67 31 36 - - -
21/09:00pm - - - - - N 54 67 29 36 - - -
21/08:30pm - - - - - N 56 69 30 37 - - -
21/08:00pm - - - - - N 57 70 31 38 - - -
21/07:53pm - - - - - N 57 76 31 41 - - -
21/07:30pm - - - - - N 59 72 32 39 - - -
21/07:04pm - - - - - N 61 80 33 43 - - -
21/07:00pm - - - - - N 61 76 33 41 - - -
21/06:30pm - - - - - N 56 70 30 38 - - -
21/06:00pm - - - - - N 57 70 31 38 - - -
21/05:30pm - - - - - N 54 69 29 37 - - -
21/05:00pm - - - - - N 50 65 27 35 - - -
21/04:30pm - - - - - N 46 57 25 31 - - -
21/04:00pm - - - - - N 44 54 24 29 - - -
21/03:30pm - - - - - N 50 59 27 32 - - -
21/03:00pm - - - - - N 46 57 25 31 - - -
21/02:30pm - - - - - N 43 52 23 28 - - -
21/02:00pm - - - - - N 54 63 29 34 - - -
21/01:30pm - - - - - N 48 61 26 33 - - -
21/01:00pm - - - - - N 48 61 26 33 - - -
21/12:30pm - - - - - N 52 61 28 33 - - -
21/12:00pm - - - - - N 50 61 27 33 - - -
21/11:30am - - - - - N 48 59 26 32 - - -
21/11:00am - - - - - N 50 57 27 31 - - -
21/10:30am - - - - - N 46 52 25 28 - - -
21/10:00am - - - - - N 44 54 24 29 - - -
21/09:30am - - - - - N 43 50 23 27 - - -
21/09:00am - - - - - N 46 52 25 28 - - -
21/08:30am - - - - - N 43 50 23 27 - - -
21/08:00am - - - - - N 35 43 19 23 - - -
21/07:30am - - - - - N 32 39 17 21 - - -
21/07:00am - - - - - N 32 39 17 21 - - -
21/06:30am - - - - - N 30 41 16 22 - - -
21/06:00am - - - - - N 35 46 19 25 - - -
21/05:30am - - - - - N 39 46 21 25 - - -
21/05:00am - - - - - N 35 43 19 23 - - -
21/04:30am - - - - - N 35 44 19 24 - - -
21/04:00am - - - - - N 32 43 17 23 - - -
21/03:30am - - - - - N 28 33 15 18 - - -
21/03:00am - - - - - N 32 35 17 19 - - -
21/02:30am - - - - - N 32 39 17 21 - - -
21/02:00am - - - - - N 39 44 21 24 - - -
21/01:30am - - - - - N 41 48 22 26 - - -
21/01:00am - - - - - N 41 48 22 26 - - -
21/12:30am - - - - - N 32 41 17 22 - - -
21/12:00am - - - - - N 35 43 19 23 - - -
 
Date/Time
EST
Temp
°C
App
Temp
°C
Dew
Point
Rel
Hum
%
Delta-T
°C
Wind Press
QNH
hPa
Press
MSL
hPa
Rain
since 9 am
mm
Dir
 
Spd
km/h
Gust
km/h
Spd
kts
Gust
kts
20/11:30pm - - - - - N 35 41 19 22 - - -
20/11:00pm - - - - - N 33 41 18 22 - - -
20/10:30pm - - - - - N 33 41 18 22 - - -
20/10:00pm - - - - - N 32 35 17 19 - - -
20/09:30pm - - - - - N 32 35 17 19 - - -
20/09:00pm - - - - - N 28 33 15 18 - - -
20/08:30pm - - - - - N 30 33 16 18 - - -
20/08:00pm - - - - - N 28 32 15 17 - - -
20/07:30pm - - - - - N 28 32 15 17 - - -
20/07:00pm - - - - - NNW 24 26 13 14 - - -
20/06:30pm - - - - - NW 13 17 7 9 - - -
20/06:00pm - - - - - WNW 17 22 9 12 - - -
20/05:30pm - - - - - NW 15 22 8 12 - - -
20/05:00pm - - - - - N 9 13 5 7 - - -
20/04:30pm - - - - - NW 11 13 6 7 - - -
20/04:00pm - - - - - WNW 11 15 6 8 - - -
20/03:30pm - - - - - WNW 13 15 7 8 - - -
20/03:00pm - - - - - W 17 22 9 12 - - -
20/02:30pm - - - - - WSW 11 13 6 7 - - -
20/02:00pm - - - - - W 11 17 6 9 - - -
20/01:30pm - - - - - WSW 13 17 7 9 - - -
20/01:00pm - - - - - WNW 19 24 10 13 - - -
20/12:30pm - - - - - W 15 22 8 12 - - -
20/12:00pm - - - - - W 19 26 10 14 - - -
20/11:30am - - - - - WNW 26 33 14 18 - - -
20/11:00am - - - - - WNW 30 35 16 19 - - -
20/10:30am - - - - - W 26 32 14 17 - - -
20/10:00am - - - - - WNW 26 32 14 17 - - -
20/09:30am - - - - - WNW 24 32 13 17 - - -
20/09:00am - - - - - NW 22 28 12 15 - - -
20/08:30am - - - - - NW 19 26 10 14 - - -
20/08:00am - - - - - NW 19 22 10 12 - - -
20/07:30am - - - - - WNW 20 24 11 13 - - -
20/07:00am - - - - - WNW 15 17 8 9 - - -
20/06:30am - - - - - W 15 20 8 11 - - -
20/06:00am - - - - - W 13 20 7 11 - - -
20/05:30am - - - - - W 13 20 7 11 - - -
20/05:00am - - - - - WSW 20 28 11 15 - - -
20/04:30am - - - - - W 15 20 8 11 - - -
20/04:00am - - - - - W 19 24 10 13 - - -
20/03:30am - - - - - NW 15 20 8 11 - - -
20/03:00am - - - - - NW 15 20 8 11 - - -
20/02:30am - - - - - NW 15 17 8 9 - - -
20/02:00am - - - - - WNW 13 17 7 9 - - -
20/01:30am - - - - - WNW 15 20 8 11 - - -
20/01:00am - - - - - NW 17 22 9 12 - - -
20/12:30am - - - - - NNW 20 24 11 13 - - -
20/12:00am - - - - - NNW 19 22 10 12 - - -
 
Date/Time
EST
Temp
°C
App
Temp
°C
Dew
Point
Rel
Hum
%
Delta-T
°C
Wind Press
QNH
hPa
Press
MSL
hPa
Rain
since 9 am
mm
Dir
 
Spd
km/h
Gust
km/h
Spd
kts
Gust
kts
19/11:30pm - - - - - N 15 20 8 11 - - -
19/11:00pm - - - - - N 17 22 9 12 - - -
19/10:30pm - - - - - N 17 20 9 11 - - -
19/10:00pm - - - - - N 13 17 7 9 - - -
19/09:30pm - - - - - SSW 6 9 3 5 - - -
19/09:00pm - - - - - SSW 6 9 3 5 - - -
19/08:30pm - - - - - S 7 13 4 7 - - -
19/08:00pm - - - - - S 9 13 5 7 - - -
19/07:30pm - - - - - S 9 11 5 6 - - -
19/07:00pm - - - - - SSE 9 15 5 8 - - -
19/06:30pm - - - - - S 13 17 7 9 - - -
19/06:00pm - - - - - S 17 22 9 12 - - -
19/05:30pm - - - - - S 17 24 9 13 - - -
19/05:00pm - - - - - S 19 24 10 13 - - -
19/04:30pm - - - - - S 20 24 11 13 - - -
19/04:00pm - - - - - SSE 20 26 11 14 - - -
19/03:30pm - - - - - S 22 26 12 14 - - -
19/03:00pm - - - - - S 15 22 8 12 - - -
19/02:30pm - - - - - S 11 15 6 8 - - -
19/02:00pm - - - - - SSW 22 26 12 14 - - -
19/01:30pm - - - - - SSE 7 13 4 7 - - -
19/01:00pm - - - - - SE 11 17 6 9 - - -
19/12:30pm - - - - - SSE 26 32 14 17 - - -
19/12:00pm - - - - - SSW 20 35 11 19 - - -
19/11:30am - - - - - SSW 26 32 14 17 - - -
19/11:00am - - - - - SSW 28 33 15 18 - - -
19/10:30am - - - - - S 28 32 15 17 - - -
19/10:00am - - - - - SW 26 32 14 17 - - -
19/09:30am - - - - - WSW 24 30 13 16 - - -
19/09:00am - - - - - WSW 28 32 15 17 - - -
19/08:30am - - - - - SW 28 35 15 19 - - -
19/08:00am - - - - - SSW 33 48 18 26 - - -
19/07:51am - - - - - SSW 30 48 16 26 - - -
19/07:30am - - - - - WSW 30 39 16 21 - - -
19/07:00am - - - - - SW 35 43 19 23 - - -
19/06:30am - - - - - SSW 35 44 19 24 - - -
19/06:00am - - - - - SSW 37 44 20 24 - - -
19/05:51am - - - - - SSW 37 46 20 25 - - -
19/05:30am - - - - - WSW 26 32 14 17 - - -
19/05:00am - - - - - SW 32 41 17 22 - - -
19/04:30am - - - - - SW 28 35 15 19 - - -
19/04:00am - - - - - SSW 33 44 18 24 - - -
19/03:30am - - - - - SW 32 41 17 22 - - -
19/03:00am - - - - - SW 30 35 16 19 - - -
19/02:30am - - - - - SW 33 41 18 22 - - -
19/02:00am - - - - - SW 35 43 19 23 - - -
19/01:30am - - - - - SW 30 33 16 18 - - -
19/01:00am - - - - - WSW 30 39 16 21 - - -

Other Formats:

Comma delimited format used in spreadsheet applications
http://www.bom.gov.au/fwo/IDV60801/IDV60801.95872.axf

JavaScript Object Notation format (JSON) in row-major order
http://www.bom.gov.au/fwo/IDV60801/IDV60801.95872.json